createdAt,value
2023-02-26T00:00:20.751Z,3.83
2023-02-26T00:02:48.684Z,3.80
2023-02-26T00:05:16.496Z,3.73
2023-02-26T00:07:43.408Z,3.71
2023-02-26T00:10:13.726Z,3.66
2023-02-26T00:12:40.739Z,3.66
2023-02-26T00:15:08.403Z,3.62
2023-02-26T00:17:37.966Z,3.62
2023-02-26T00:20:06.577Z,3.60
2023-02-26T00:22:33.505Z,3.67
2023-02-26T00:25:00.109Z,3.66
2023-02-26T00:27:26.744Z,3.63
2023-02-26T00:29:54.296Z,3.62
2023-02-26T00:32:21.209Z,3.60
2023-02-26T00:34:48.567Z,3.59
2023-02-26T00:37:38.738Z,3.56
2023-02-26T00:40:42.452Z,3.51
2023-02-26T00:43:15.942Z,3.48
2023-02-26T00:46:19.132Z,3.44
2023-02-26T00:49:07.185Z,3.46
2023-02-26T00:51:48.110Z,3.45
2023-02-26T00:54:24.199Z,3.45
2023-02-26T00:56:52.723Z,3.42
2023-02-26T00:59:20.414Z,3.41
2023-02-26T01:01:47.577Z,3.40
2023-02-26T01:04:16.349Z,3.41
2023-02-26T01:06:52.526Z,3.39
2023-02-26T01:09:32.021Z,3.38
2023-02-26T01:12:01.673Z,3.37
2023-02-26T01:14:30.013Z,3.40
2023-02-26T01:17:21.240Z,3.35
2023-02-26T01:20:22.149Z,3.33
2023-02-26T01:23:03.956Z,3.29
2023-02-26T01:25:44.649Z,3.26
2023-02-26T01:28:11.461Z,3.23
2023-02-26T01:30:38.578Z,3.24
2023-02-26T01:33:25.717Z,3.24
2023-02-26T01:35:52.236Z,3.21
2023-02-26T01:38:37.160Z,3.20
2023-02-26T01:41:27.030Z,3.22
2023-02-26T01:44:08.673Z,3.23
2023-02-26T01:46:49.417Z,3.25
2023-02-26T01:49:19.290Z,3.23
2023-02-26T01:51:50.579Z,3.24
2023-02-26T01:54:21.873Z,3.25
2023-02-26T01:56:53.171Z,3.21
2023-02-26T01:59:24.785Z,3.19
2023-02-26T02:01:56.955Z,3.20
2023-02-26T02:04:24.716Z,3.18
2023-02-26T02:06:51.929Z,3.16
2023-02-26T02:09:18.657Z,3.15
2023-02-26T02:12:10.188Z,3.16
2023-02-26T02:14:46.731Z,3.15
2023-02-26T02:17:34.969Z,3.07
2023-02-26T02:20:23.383Z,3.03
2023-02-26T02:22:52.984Z,3.13
2023-02-26T02:25:48.843Z,3.13
2023-02-26T02:28:33.908Z,3.09
2023-02-26T02:31:09.764Z,3.06
2023-02-26T02:33:49.800Z,3.08
2023-02-26T02:36:25.340Z,3.07
2023-02-26T02:38:57.710Z,3.06
2023-02-26T02:41:48.764Z,3.03
2023-02-26T02:44:19.860Z,2.99
2023-02-26T02:46:48.969Z,2.98
2023-02-26T02:49:25.432Z,2.98
2023-02-26T02:52:00.683Z,3.05
2023-02-26T02:54:39.005Z,3.00
2023-02-26T02:57:16.194Z,3.00
2023-02-26T02:59:46.295Z,3.00
2023-02-26T03:02:25.679Z,3.06
2023-02-26T03:04:52.702Z,3.10
2023-02-26T03:07:19.356Z,3.11
2023-02-26T03:09:46.805Z,3.08
2023-02-26T03:12:13.442Z,3.03
2023-02-26T03:14:40.716Z,2.94
2023-02-26T03:17:25.864Z,2.90
2023-02-26T03:20:05.047Z,2.88
2023-02-26T03:22:55.928Z,2.83
2023-02-26T03:25:49.492Z,2.80
2023-02-26T03:28:15.984Z,2.80
2023-02-26T03:30:50.784Z,2.87
2023-02-26T03:33:21.753Z,2.88
2023-02-26T03:36:10.260Z,2.86
2023-02-26T03:38:43.971Z,2.87
2023-02-26T03:41:17.199Z,2.93
2023-02-26T03:43:54.166Z,2.93
2023-02-26T03:46:34.392Z,2.90
2023-02-26T03:49:07.786Z,2.89
2023-02-26T03:51:37.198Z,2.89
2023-02-26T03:54:10.044Z,2.84
2023-02-26T03:56:46.094Z,2.73
2023-02-26T03:59:14.868Z,2.66
2023-02-26T04:02:22.490Z,2.60
2023-02-26T04:05:11.364Z,2.53
2023-02-26T04:07:39.560Z,2.48
2023-02-26T04:10:08.500Z,2.45
2023-02-26T04:12:35.148Z,2.41
2023-02-26T04:15:02.360Z,2.37
2023-02-26T04:17:30.419Z,2.31
2023-02-26T04:19:57.098Z,2.27
2023-02-26T04:22:23.873Z,2.27
2023-02-26T04:24:50.449Z,2.34
2023-02-26T04:27:17.025Z,2.35
2023-02-26T04:29:43.621Z,2.32
2023-02-26T04:32:10.440Z,2.30
2023-02-26T04:34:37.124Z,2.27
2023-02-26T04:37:03.763Z,2.25
2023-02-26T04:39:30.300Z,2.28
2023-02-26T04:41:56.857Z,2.24
2023-02-26T04:44:23.934Z,2.20
2023-02-26T04:46:50.505Z,2.18
2023-02-26T04:49:17.247Z,2.13
2023-02-26T04:51:43.803Z,2.12
2023-02-26T04:54:10.384Z,2.09
2023-02-26T04:56:36.922Z,2.09
2023-02-26T04:59:03.529Z,2.05
2023-02-26T05:01:30.661Z,2.03
2023-02-26T05:03:57.313Z,2.01
2023-02-26T05:06:24.257Z,1.99
2023-02-26T05:08:50.989Z,2.12
2023-02-26T05:11:17.587Z,2.09
2023-02-26T05:13:44.186Z,2.12
2023-02-26T05:16:10.958Z,2.05
2023-02-26T05:18:37.563Z,2.03
2023-02-26T05:21:05.710Z,2.00
2023-02-26T05:23:32.558Z,2.00
2023-02-26T05:25:59.459Z,2.05
2023-02-26T05:28:26.960Z,2.09
2023-02-26T05:30:53.662Z,2.11
2023-02-26T05:33:20.333Z,2.11
2023-02-26T05:35:48.168Z,2.13
2023-02-26T05:38:15.104Z,2.11
2023-02-26T05:40:41.649Z,2.07
2023-02-26T05:43:08.788Z,2.03
2023-02-26T05:45:35.435Z,2.08
2023-02-26T05:48:02.389Z,2.13
2023-02-26T05:50:30.564Z,2.21
2023-02-26T05:52:57.401Z,2.23
2023-02-26T05:55:24.625Z,2.20
2023-02-26T05:57:51.209Z,2.25
2023-02-26T06:00:18.179Z,2.21
2023-02-26T06:02:44.759Z,2.14
2023-02-26T06:05:11.478Z,2.05
2023-02-26T06:07:38.259Z,2.01
2023-02-26T06:10:06.425Z,1.97
2023-02-26T06:12:33.008Z,1.96
2023-02-26T06:14:59.643Z,1.95
2023-02-26T06:17:27.169Z,1.92
2023-02-26T06:19:53.760Z,1.92
2023-02-26T06:22:22.654Z,1.89
2023-02-26T06:24:49.281Z,1.88
2023-02-26T06:27:15.960Z,1.88
2023-02-26T06:29:42.738Z,1.91
2023-02-26T06:32:09.424Z,1.91
2023-02-26T06:34:36.037Z,1.91
2023-02-26T06:37:02.733Z,1.92
2023-02-26T06:39:29.474Z,1.94
2023-02-26T06:41:56.028Z,1.97
2023-02-26T06:44:22.751Z,2.00
2023-02-26T06:46:49.404Z,2.04
2023-02-26T06:49:15.960Z,2.17
2023-02-26T06:51:42.586Z,2.23
2023-02-26T06:54:09.177Z,2.26
2023-02-26T06:56:35.720Z,2.38
2023-02-26T06:59:02.282Z,2.47
2023-02-26T07:01:28.947Z,2.54
2023-02-26T07:03:55.537Z,2.59
2023-02-26T07:06:27.796Z,2.62
2023-02-26T07:08:55.216Z,2.62
2023-02-26T07:11:21.860Z,2.62
2023-02-26T07:13:48.441Z,2.67
2023-02-26T07:16:15.058Z,2.70
2023-02-26T07:18:41.671Z,2.71
2023-02-26T07:21:08.302Z,2.71
2023-02-26T07:23:35.323Z,2.73
2023-02-26T07:26:02.374Z,2.68
2023-02-26T07:28:28.971Z,2.71
2023-02-26T07:30:56.500Z,2.74
2023-02-26T07:33:23.393Z,2.78
2023-02-26T07:35:49.987Z,2.88
2023-02-26T07:38:19.139Z,3.04
2023-02-26T07:40:46.765Z,3.15
2023-02-26T07:43:13.359Z,3.20
2023-02-26T07:45:39.934Z,3.27
2023-02-26T07:48:06.591Z,3.34
2023-02-26T07:50:33.662Z,3.42
2023-02-26T07:53:00.377Z,3.53
2023-02-26T07:55:27.828Z,3.65
2023-02-26T07:57:54.459Z,3.78
2023-02-26T08:00:21.548Z,3.89
2023-02-26T08:02:48.332Z,3.96
2023-02-26T08:05:14.899Z,4.01
2023-02-26T08:07:41.444Z,4.13
2023-02-26T08:10:08.682Z,4.24
2023-02-26T08:12:36.638Z,4.32
2023-02-26T08:15:04.436Z,4.42
2023-02-26T08:17:31.252Z,4.48
2023-02-26T08:19:57.852Z,4.53
2023-02-26T08:22:24.554Z,4.56
2023-02-26T08:24:51.196Z,4.60
2023-02-26T08:27:17.876Z,4.62
2023-02-26T08:29:46.314Z,4.67
2023-02-26T08:32:15.741Z,4.71
2023-02-26T08:34:42.473Z,4.74
2023-02-26T08:37:11.664Z,4.77
2023-02-26T08:39:39.050Z,4.81
2023-02-26T08:42:10.392Z,4.81
2023-02-26T08:44:37.237Z,4.83
2023-02-26T08:47:03.993Z,4.89
2023-02-26T08:49:31.032Z,4.98
2023-02-26T08:51:57.716Z,5.01
2023-02-26T08:54:24.401Z,5.03
2023-02-26T08:56:51.392Z,5.03
2023-02-26T08:59:18.145Z,5.09
2023-02-26T09:01:44.856Z,5.15
2023-02-26T09:04:11.425Z,5.22
2023-02-26T09:06:38.012Z,5.30
2023-02-26T09:09:04.740Z,5.33
2023-02-26T09:11:32.515Z,5.37
2023-02-26T09:13:59.617Z,5.41
2023-02-26T09:16:27.132Z,5.47
2023-02-26T09:18:53.933Z,5.56
2023-02-26T09:21:21.254Z,5.61
2023-02-26T09:23:47.988Z,5.63
2023-02-26T09:26:14.840Z,5.67
2023-02-26T09:28:41.482Z,5.67
2023-02-26T09:31:08.284Z,5.71
2023-02-26T09:33:35.189Z,5.73
2023-02-26T09:36:01.793Z,5.74
2023-02-26T09:38:28.459Z,5.73
2023-02-26T09:40:59.655Z,5.76
2023-02-26T09:43:54.232Z,5.80
2023-02-26T09:46:39.505Z,5.87
2023-02-26T09:49:20.139Z,5.96
2023-02-26T09:51:52.272Z,6.02
2023-02-26T09:54:23.483Z,6.09
2023-02-26T09:56:53.036Z,6.12
2023-02-26T09:59:19.698Z,6.19
2023-02-26T10:02:07.801Z,6.27
2023-02-26T10:04:51.047Z,6.43
2023-02-26T10:07:38.872Z,6.55
2023-02-26T10:10:12.415Z,6.72
2023-02-26T10:12:41.799Z,6.87
2023-02-26T10:15:29.192Z,6.99
2023-02-26T10:18:04.525Z,7.12
2023-02-26T10:20:54.095Z,7.14
2023-02-26T10:23:23.826Z,7.24
2023-02-26T10:26:04.038Z,7.34
2023-02-26T10:28:42.510Z,7.37
2023-02-26T10:31:13.883Z,7.32
2023-02-26T10:34:05.656Z,7.35
2023-02-26T10:36:58.837Z,7.49
2023-02-26T10:40:10.046Z,7.70
2023-02-26T10:42:50.992Z,7.89
2023-02-26T10:45:27.335Z,8.11
2023-02-26T10:48:08.852Z,8.23
2023-02-26T10:50:35.990Z,8.37
2023-02-26T10:53:03.145Z,8.51
2023-02-26T10:55:34.061Z,8.69
2023-02-26T10:58:05.584Z,9.15
2023-02-26T11:00:35.281Z,9.42
2023-02-26T11:03:05.380Z,9.43
2023-02-26T11:05:33.812Z,9.50
2023-02-26T11:08:10.861Z,9.53
2023-02-26T11:10:50.688Z,9.40
2023-02-26T11:13:17.313Z,9.20
2023-02-26T11:15:47.578Z,9.11
2023-02-26T11:18:19.208Z,8.97
2023-02-26T11:20:47.243Z,8.91
2023-02-26T11:23:18.665Z,8.83
2023-02-26T11:25:45.527Z,8.82
2023-02-26T11:28:51.200Z,8.83
2023-02-26T11:31:19.124Z,8.80
2023-02-26T11:33:50.813Z,8.72
2023-02-26T11:36:20.793Z,8.74
2023-02-26T11:38:54.951Z,8.73
2023-02-26T11:41:24.088Z,8.73
2023-02-26T11:44:01.621Z,8.86
2023-02-26T11:46:28.961Z,8.81
2023-02-26T11:48:58.205Z,8.85
2023-02-26T11:51:27.657Z,8.89
2023-02-26T11:54:02.879Z,8.93
2023-02-26T11:56:39.106Z,8.97
2023-02-26T11:59:16.605Z,8.98
2023-02-26T12:01:43.292Z,8.94
2023-02-26T12:04:13.509Z,8.83
2023-02-26T12:06:40.248Z,8.80
2023-02-26T12:09:12.538Z,8.81
2023-02-26T12:11:48.314Z,8.77
2023-02-26T12:14:20.915Z,8.74
2023-02-26T12:16:56.124Z,8.71
2023-02-26T12:19:49.441Z,8.51
2023-02-26T12:22:15.990Z,8.45
2023-02-26T12:25:36.948Z,8.39
2023-02-26T12:28:11.285Z,8.27
2023-02-26T12:30:59.049Z,8.28
2023-02-26T12:34:07.182Z,8.32
2023-02-26T12:36:47.613Z,8.31
2023-02-26T12:39:40.795Z,8.29
2023-02-26T12:42:55.454Z,8.25
2023-02-26T12:45:41.341Z,8.20
2023-02-26T12:48:13.858Z,8.24
2023-02-26T12:51:25.767Z,8.23
2023-02-26T12:53:58.315Z,8.23
2023-02-26T12:56:34.069Z,8.13
2023-02-26T12:59:25.447Z,8.10
2023-02-26T13:02:00.893Z,8.08
2023-02-26T13:04:36.466Z,7.96
2023-02-26T13:07:03.025Z,7.98
2023-02-26T13:10:07.120Z,8.02
2023-02-26T13:12:41.120Z,8.06
2023-02-26T13:15:25.358Z,8.01
2023-02-26T13:18:02.206Z,8.04
2023-02-26T13:20:29.745Z,8.06
2023-02-26T13:23:10.484Z,8.08
2023-02-26T13:25:48.746Z,7.96
2023-02-26T13:28:24.373Z,7.91
2023-02-26T13:30:56.045Z,7.88
2023-02-26T13:33:29.844Z,7.84
2023-02-26T13:35:57.583Z,7.78
2023-02-26T13:38:42.145Z,7.72
2023-02-26T13:41:42.509Z,7.64
2023-02-26T13:44:26.292Z,7.56
2023-02-26T13:47:16.985Z,7.49
2023-02-26T13:49:55.864Z,7.43
2023-02-26T13:52:31.719Z,7.41
2023-02-26T13:54:59.509Z,7.37
2023-02-26T13:57:36.062Z,7.30
2023-02-26T14:00:27.554Z,7.25
2023-02-26T14:03:10.577Z,7.25
2023-02-26T14:05:49.208Z,7.21
2023-02-26T14:08:22.515Z,7.14
2023-02-26T14:11:24.984Z,7.05
2023-02-26T14:14:12.428Z,6.96
2023-02-26T14:16:47.144Z,6.94
2023-02-26T14:19:13.614Z,6.91
2023-02-26T14:22:19.619Z,6.84
2023-02-26T14:24:54.253Z,6.77
2023-02-26T14:27:20.667Z,6.70
2023-02-26T14:29:56.292Z,6.67
2023-02-26T14:32:31.331Z,6.62
2023-02-26T14:35:20.487Z,6.53
2023-02-26T14:38:03.739Z,6.48
2023-02-26T14:40:36.716Z,6.41
2023-02-26T14:43:06.937Z,6.37
2023-02-26T14:45:39.330Z,6.33
2023-02-26T14:48:12.943Z,6.29
2023-02-26T14:50:54.458Z,6.26
2023-02-26T14:53:39.301Z,6.27
2023-02-26T14:56:31.734Z,6.26
2023-02-26T14:59:01.306Z,6.21
2023-02-26T15:01:48.128Z,6.13
2023-02-26T15:04:22.704Z,6.06
2023-02-26T15:07:21.188Z,6.00
2023-02-26T15:10:22.012Z,6.00
2023-02-26T15:13:32.770Z,5.93
2023-02-26T15:16:23.687Z,5.86
2023-02-26T15:18:56.273Z,5.80
2023-02-26T15:21:34.921Z,5.74
2023-02-26T15:24:02.413Z,5.74
2023-02-26T15:26:32.982Z,5.73
2023-02-26T15:29:04.749Z,5.69
2023-02-26T15:31:36.122Z,5.63
2023-02-26T15:34:04.006Z,5.64
2023-02-26T15:36:31.442Z,5.62
2023-02-26T15:39:01.704Z,5.58
2023-02-26T15:41:31.463Z,5.55
2023-02-26T15:44:08.256Z,5.57
2023-02-26T15:46:38.765Z,5.59
2023-02-26T15:49:16.907Z,5.56
2023-02-26T15:51:45.020Z,5.56
2023-02-26T15:54:19.697Z,5.53
2023-02-26T15:56:46.640Z,5.51
2023-02-26T15:59:33.005Z,5.51
2023-02-26T16:02:02.917Z,5.49
2023-02-26T16:04:29.600Z,5.46
2023-02-26T16:06:58.231Z,5.45
2023-02-26T16:09:40.186Z,5.44
2023-02-26T16:12:11.909Z,5.43
2023-02-26T16:14:46.392Z,5.39
2023-02-26T16:17:24.158Z,5.37
2023-02-26T16:19:51.920Z,5.34
2023-02-26T16:22:25.701Z,5.30
2023-02-26T16:24:58.777Z,5.27
2023-02-26T16:27:29.164Z,5.24
2023-02-26T16:29:58.460Z,5.21
2023-02-26T16:32:28.372Z,5.20
2023-02-26T16:34:57.737Z,5.18
2023-02-26T16:37:31.220Z,5.16
2023-02-26T16:40:12.669Z,5.15
2023-02-26T16:42:51.883Z,5.14
2023-02-26T16:45:36.642Z,5.13
2023-02-26T16:48:26.149Z,5.12
2023-02-26T16:51:08.619Z,5.11
2023-02-26T16:54:04.892Z,5.08
2023-02-26T16:56:35.478Z,5.09
2023-02-26T16:59:22.394Z,5.09
2023-02-26T17:01:53.526Z,5.07
2023-02-26T17:04:24.326Z,5.08
2023-02-26T17:06:52.518Z,5.06
2023-02-26T17:09:26.914Z,5.04
2023-02-26T17:12:12.639Z,5.01
2023-02-26T17:14:48.047Z,5.03
2023-02-26T17:17:14.764Z,5.01
2023-02-26T17:19:41.340Z,5.00
2023-02-26T17:22:13.847Z,5.00
2023-02-26T17:24:48.465Z,5.01
2023-02-26T17:27:22.213Z,4.98
2023-02-26T17:29:51.045Z,4.96
2023-02-26T17:32:31.315Z,4.95
2023-02-26T17:34:58.857Z,4.92
2023-02-26T17:37:31.206Z,4.89
2023-02-26T17:39:59.563Z,4.86
2023-02-26T17:42:26.594Z,4.83
2023-02-26T17:44:55.151Z,4.80
2023-02-26T17:47:24.085Z,4.79
2023-02-26T17:49:50.657Z,4.78
2023-02-26T17:52:17.753Z,4.74
2023-02-26T17:54:44.939Z,4.72
2023-02-26T17:57:18.598Z,4.70
2023-02-26T17:59:45.509Z,4.69
2023-02-26T18:02:23.224Z,4.64
2023-02-26T18:04:49.835Z,4.63
2023-02-26T18:07:17.661Z,4.60
2023-02-26T18:09:46.167Z,4.56
2023-02-26T18:12:18.120Z,4.52
2023-02-26T18:14:44.855Z,4.50
2023-02-26T18:17:14.721Z,4.46
2023-02-26T18:19:42.744Z,4.48
2023-02-26T18:22:17.496Z,4.49
2023-02-26T18:24:43.974Z,4.47
2023-02-26T18:27:15.572Z,4.43
2023-02-26T18:29:42.782Z,4.42
2023-02-26T18:32:13.448Z,4.40
2023-02-26T18:34:40.157Z,4.38
2023-02-26T18:37:11.152Z,4.36
2023-02-26T18:39:38.175Z,4.33
2023-02-26T18:42:05.151Z,4.34
2023-02-26T18:44:33.202Z,4.37
2023-02-26T18:47:00.500Z,4.35
2023-02-26T18:49:27.724Z,4.33
2023-02-26T18:51:54.683Z,4.32
2023-02-26T18:54:21.235Z,4.31
2023-02-26T18:56:47.800Z,4.30
2023-02-26T18:59:14.387Z,4.27
2023-02-26T19:01:41.445Z,4.27
2023-02-26T19:04:08.120Z,4.26
2023-02-26T19:06:34.687Z,4.24
2023-02-26T19:09:02.786Z,4.24
2023-02-26T19:11:29.682Z,4.24
2023-02-26T19:13:56.630Z,4.27
2023-02-26T19:16:23.707Z,4.27
2023-02-26T19:18:51.023Z,4.26
2023-02-26T19:21:18.721Z,4.29
2023-02-26T19:23:45.468Z,4.31
2023-02-26T19:26:12.036Z,4.32
2023-02-26T19:28:38.643Z,4.33
2023-02-26T19:31:06.701Z,4.33
2023-02-26T19:33:33.457Z,4.35
2023-02-26T19:36:00.255Z,4.36
2023-02-26T19:38:26.880Z,4.38
2023-02-26T19:40:53.458Z,4.38
2023-02-26T19:43:23.346Z,4.38
2023-02-26T19:45:50.056Z,4.39
2023-02-26T19:48:16.805Z,4.38
2023-02-26T19:50:43.666Z,4.39
2023-02-26T19:53:10.421Z,4.37
2023-02-26T19:55:37.019Z,4.39
2023-02-26T19:58:03.658Z,4.37
2023-02-26T20:00:30.315Z,4.36
2023-02-26T20:02:56.911Z,4.31
2023-02-26T20:05:23.459Z,4.27
2023-02-26T20:07:50.015Z,4.26
2023-02-26T20:10:16.975Z,4.25
2023-02-26T20:12:45.353Z,4.21
2023-02-26T20:15:12.798Z,4.15
2023-02-26T20:17:39.476Z,4.14
2023-02-26T20:20:07.015Z,4.12
2023-02-26T20:22:33.657Z,4.09
2023-02-26T20:25:00.198Z,4.03
2023-02-26T20:27:26.812Z,4.04
2023-02-26T20:29:53.392Z,3.99
2023-02-26T20:32:20.459Z,3.95
2023-02-26T20:34:47.245Z,3.89
2023-02-26T20:37:13.847Z,3.85
2023-02-26T20:39:40.451Z,3.82
2023-02-26T20:42:07.043Z,3.78
2023-02-26T20:44:33.668Z,3.75
2023-02-26T20:47:02.438Z,3.70
2023-02-26T20:49:30.306Z,3.67
2023-02-26T20:51:57.397Z,3.66
2023-02-26T20:54:24.087Z,3.62
2023-02-26T20:56:51.128Z,3.61
2023-02-26T20:59:18.551Z,3.61
2023-02-26T21:01:46.474Z,3.57
2023-02-26T21:04:13.422Z,3.53
2023-02-26T21:06:40.278Z,3.52
2023-02-26T21:09:08.688Z,3.51
2023-02-26T21:11:36.925Z,3.48
2023-02-26T21:14:05.244Z,3.47
2023-02-26T21:16:32.108Z,3.44
2023-02-26T21:19:00.402Z,3.40
2023-02-26T21:21:27.281Z,3.36
2023-02-26T21:23:54.166Z,3.33
2023-02-26T21:26:21.844Z,3.27
2023-02-26T21:28:48.684Z,3.25
2023-02-26T21:31:17.207Z,3.23
2023-02-26T21:33:44.406Z,3.14
2023-02-26T21:36:11.601Z,3.08
2023-02-26T21:38:38.307Z,3.04
2023-02-26T21:41:05.102Z,2.95
2023-02-26T21:43:31.693Z,2.92
2023-02-26T21:45:58.401Z,2.85
2023-02-26T21:48:24.993Z,2.84
2023-02-26T21:50:52.131Z,2.80
2023-02-26T21:53:18.970Z,2.72
2023-02-26T21:55:45.547Z,2.68
2023-02-26T21:58:13.704Z,2.58
2023-02-26T22:00:40.306Z,2.57
2023-02-26T22:03:06.860Z,2.53
2023-02-26T22:05:33.490Z,2.47
2023-02-26T22:08:00.111Z,2.46
2023-02-26T22:10:29.596Z,2.46
2023-02-26T22:12:56.357Z,2.42
2023-02-26T22:15:22.927Z,2.39
2023-02-26T22:17:49.500Z,2.40
2023-02-26T22:20:16.258Z,2.32
2023-02-26T22:22:42.972Z,2.28
2023-02-26T22:25:11.944Z,2.23
2023-02-26T22:27:39.043Z,2.18
2023-02-26T22:30:07.602Z,2.15
2023-02-26T22:32:35.730Z,2.07
2023-02-26T22:35:03.308Z,2.04
2023-02-26T22:37:30.079Z,2.00
2023-02-26T22:39:56.768Z,2.00
2023-02-26T22:42:23.448Z,1.99
2023-02-26T22:44:50.036Z,1.99
2023-02-26T22:47:16.702Z,1.96
2023-02-26T22:49:43.320Z,1.90
2023-02-26T22:52:10.858Z,1.85
2023-02-26T22:54:38.997Z,1.78
2023-02-26T22:57:06.270Z,1.69
2023-02-26T22:59:32.844Z,1.67
2023-02-26T23:01:59.434Z,1.60
2023-02-26T23:04:26.070Z,1.58
2023-02-26T23:06:52.922Z,1.56
2023-02-26T23:09:19.620Z,1.53
2023-02-26T23:11:46.198Z,1.49
2023-02-26T23:14:12.913Z,1.49
2023-02-26T23:16:39.901Z,1.45
2023-02-26T23:19:06.629Z,1.43
2023-02-26T23:21:33.273Z,1.40
2023-02-26T23:23:59.931Z,1.37
2023-02-26T23:26:26.527Z,1.30
2023-02-26T23:28:53.218Z,1.27
2023-02-26T23:31:20.014Z,1.22
2023-02-26T23:33:46.729Z,1.17
2023-02-26T23:36:13.352Z,1.14
2023-02-26T23:38:39.919Z,1.12
2023-02-26T23:41:06.504Z,1.06
2023-02-26T23:43:33.377Z,1.06
2023-02-26T23:46:00.019Z,1.12
2023-02-26T23:48:27.533Z,1.09
2023-02-26T23:50:55.936Z,1.10
2023-02-26T23:53:22.619Z,1.09
2023-02-26T23:55:52.496Z,1.09
2023-02-26T23:58:20.543Z,1.04
